sensor_id;sensor_type;location;lat;lon;timestamp;pressure;altitude;pressure_sealevel;temperature;humidity
76868;BME280;66168;45.478;11.060;2022-12-24T00:01:45;100758.48;;;9.49;74.05
76868;BME280;66168;45.478;11.060;2022-12-24T00:04:12;100766.52;;;9.49;74.03
76868;BME280;66168;45.478;11.060;2022-12-24T00:06:38;100772.02;;;9.51;74.05
76868;BME280;66168;45.478;11.060;2022-12-24T00:09:05;100768.47;;;9.53;74.20
76868;BME280;66168;45.478;11.060;2022-12-24T00:11:32;100769.70;;;9.53;74.27
76868;BME280;66168;45.478;11.060;2022-12-24T00:13:58;100766.84;;;9.55;74.36
76868;BME280;66168;45.478;11.060;2022-12-24T00:16:25;100774.81;;;9.57;74.24
76868;BME280;66168;45.478;11.060;2022-12-24T00:18:52;100779.56;;;9.59;74.11
76868;BME280;66168;45.478;11.060;2022-12-24T00:21:19;100784.70;;;9.58;74.07
76868;BME280;66168;45.478;11.060;2022-12-24T00:23:46;100776.50;;;9.59;74.10
76868;BME280;66168;45.478;11.060;2022-12-24T00:26:13;100762.70;;;9.59;73.95
76868;BME280;66168;45.478;11.060;2022-12-24T00:28:40;100758.95;;;9.58;73.89
76868;BME280;66168;45.478;11.060;2022-12-24T00:31:12;100752.60;;;9.57;74.03
76868;BME280;66168;45.478;11.060;2022-12-24T00:33:40;100751.12;;;9.60;74.06
76868;BME280;66168;45.478;11.060;2022-12-24T00:36:08;100755.83;;;9.62;74.21
76868;BME280;66168;45.478;11.060;2022-12-24T00:38:35;100748.75;;;9.64;74.26
76868;BME280;66168;45.478;11.060;2022-12-24T00:41:04;100748.73;;;9.65;74.19
76868;BME280;66168;45.478;11.060;2022-12-24T00:43:32;100741.21;;;9.67;74.08
76868;BME280;66168;45.478;11.060;2022-12-24T00:45:58;100731.36;;;9.69;73.95
76868;BME280;66168;45.478;11.060;2022-12-24T00:48:25;100707.39;;;9.69;73.78
76868;BME280;66168;45.478;11.060;2022-12-24T00:50:52;100698.80;;;9.69;73.90
76868;BME280;66168;45.478;11.060;2022-12-24T00:53:19;100716.46;;;9.69;73.78
76868;BME280;66168;45.478;11.060;2022-12-24T00:55:46;100710.35;;;9.68;73.71
76868;BME280;66168;45.478;11.060;2022-12-24T00:58:12;100710.70;;;9.70;73.65
76868;BME280;66168;45.478;11.060;2022-12-24T01:00:39;100702.81;;;9.71;73.76
76868;BME280;66168;45.478;11.060;2022-12-24T01:03:06;100715.09;;;9.70;73.92
76868;BME280;66168;45.478;11.060;2022-12-24T01:05:33;100728.27;;;9.69;73.86
76868;BME280;66168;45.478;11.060;2022-12-24T01:07:59;100727.27;;;9.69;73.85
76868;BME280;66168;45.478;11.060;2022-12-24T01:10:26;100729.13;;;9.69;73.90
76868;BME280;66168;45.478;11.060;2022-12-24T01:12:53;100722.01;;;9.69;73.75
76868;BME280;66168;45.478;11.060;2022-12-24T01:15:20;100710.81;;;9.67;73.70
76868;BME280;66168;45.478;11.060;2022-12-24T01:17:46;100722.27;;;9.61;73.70
76868;BME280;66168;45.478;11.060;2022-12-24T01:20:15;100740.95;;;9.52;73.82
76868;BME280;66168;45.478;11.060;2022-12-24T01:22:42;100740.00;;;9.46;73.91
76868;BME280;66168;45.478;11.060;2022-12-24T01:25:09;100732.23;;;9.46;74.04
76868;BME280;66168;45.478;11.060;2022-12-24T01:27:36;100742.21;;;9.44;74.20
76868;BME280;66168;45.478;11.060;2022-12-24T01:30:05;100718.96;;;9.43;74.40
76868;BME280;66168;45.478;11.060;2022-12-24T01:32:32;100703.14;;;9.40;74.49
76868;BME280;66168;45.478;11.060;2022-12-24T01:34:59;100726.56;;;9.40;74.39
76868;BME280;66168;45.478;11.060;2022-12-24T01:37:26;100738.27;;;9.41;74.38
76868;BME280;66168;45.478;11.060;2022-12-24T01:39:53;100743.05;;;9.39;74.41
76868;BME280;66168;45.478;11.060;2022-12-24T01:42:43;100740.58;;;9.38;74.50
76868;BME280;66168;45.478;11.060;2022-12-24T01:45:54;100764.31;;;9.37;74.34
76868;BME280;66168;45.478;11.060;2022-12-24T01:53:34;100806.63;;;9.40;74.57
76868;BME280;66168;45.478;11.060;2022-12-24T01:56:03;100804.66;;;9.41;74.55
76868;BME280;66168;45.478;11.060;2022-12-24T01:58:33;100815.35;;;9.40;74.59
76868;BME280;66168;45.478;11.060;2022-12-24T02:01:05;100819.96;;;9.40;74.58
76868;BME280;66168;45.478;11.060;2022-12-24T02:03:32;100816.93;;;9.37;74.44
76868;BME280;66168;45.478;11.060;2022-12-24T02:06:00;100823.52;;;9.33;74.47
76868;BME280;66168;45.478;11.060;2022-12-24T02:08:27;100819.71;;;9.31;74.43
76868;BME280;66168;45.478;11.060;2022-12-24T02:11:17;100814.96;;;9.32;74.62
76868;BME280;66168;45.478;11.060;2022-12-24T02:13:52;100809.45;;;9.32;74.81
76868;BME280;66168;45.478;11.060;2022-12-24T02:16:42;100797.89;;;9.33;74.96
76868;BME280;66168;45.478;11.060;2022-12-24T02:19:40;100805.44;;;9.35;74.84
76868;BME280;66168;45.478;11.060;2022-12-24T02:22:54;100808.84;;;9.36;74.85
76868;BME280;66168;45.478;11.060;2022-12-24T02:30:47;100788.59;;;9.34;74.74
76868;BME280;66168;45.478;11.060;2022-12-24T02:33:25;100785.01;;;9.33;74.67
76868;BME280;66168;45.478;11.060;2022-12-24T02:38:53;100770.42;;;9.37;74.87
76868;BME280;66168;45.478;11.060;2022-12-24T02:41:32;100764.82;;;9.39;74.93
76868;BME280;66168;45.478;11.060;2022-12-24T02:44:21;100757.48;;;9.42;74.87
76868;BME280;66168;45.478;11.060;2022-12-24T02:46:51;100756.89;;;9.41;74.75
76868;BME280;66168;45.478;11.060;2022-12-24T02:49:18;100749.13;;;9.37;74.74
76868;BME280;66168;45.478;11.060;2022-12-24T02:51:45;100740.71;;;9.36;74.78
76868;BME280;66168;45.478;11.060;2022-12-24T02:54:13;100733.03;;;9.37;74.80
76868;BME280;66168;45.478;11.060;2022-12-24T03:07:22;100739.66;;;9.43;74.95
76868;BME280;66168;45.478;11.060;2022-12-24T03:12:32;100722.84;;;9.47;74.89
76868;BME280;66168;45.478;11.060;2022-12-24T03:15:01;100733.29;;;9.48;74.85
76868;BME280;66168;45.478;11.060;2022-12-24T03:17:30;100755.56;;;9.46;74.89
76868;BME280;66168;45.478;11.060;2022-12-24T03:19:57;100750.63;;;9.46;74.74
76868;BME280;66168;45.478;11.060;2022-12-24T03:22:25;100748.66;;;9.46;74.80
76868;BME280;66168;45.478;11.060;2022-12-24T03:24:52;100750.81;;;9.46;74.72
76868;BME280;66168;45.478;11.060;2022-12-24T03:27:19;100770.42;;;9.41;74.89
76868;BME280;66168;45.478;11.060;2022-12-24T03:29:46;100763.20;;;9.39;75.21
76868;BME280;66168;45.478;11.060;2022-12-24T03:32:13;100759.05;;;9.40;75.21
76868;BME280;66168;45.478;11.060;2022-12-24T03:34:40;100764.52;;;9.42;75.20
76868;BME280;66168;45.478;11.060;2022-12-24T03:37:07;100780.65;;;9.40;75.18
76868;BME280;66168;45.478;11.060;2022-12-24T03:39:33;100780.02;;;9.39;75.15
76868;BME280;66168;45.478;11.060;2022-12-24T03:42:00;100772.48;;;9.39;75.17
76868;BME280;66168;45.478;11.060;2022-12-24T03:44:27;100771.77;;;9.39;75.10
76868;BME280;66168;45.478;11.060;2022-12-24T03:46:54;100783.23;;;9.41;75.06
76868;BME280;66168;45.478;11.060;2022-12-24T03:49:30;100802.50;;;9.42;75.31
76868;BME280;66168;45.478;11.060;2022-12-24T03:51:56;100795.27;;;9.44;75.35
76868;BME280;66168;45.478;11.060;2022-12-24T03:54:32;100782.01;;;9.45;75.33
76868;BME280;66168;45.478;11.060;2022-12-24T03:57:06;100787.02;;;9.48;75.28
76868;BME280;66168;45.478;11.060;2022-12-24T03:59:33;100776.16;;;9.50;75.24
76868;BME280;66168;45.478;11.060;2022-12-24T04:02:00;100775.07;;;9.52;75.19
76868;BME280;66168;45.478;11.060;2022-12-24T04:04:27;100778.10;;;9.52;75.12
76868;BME280;66168;45.478;11.060;2022-12-24T04:06:54;100773.88;;;9.52;75.14
76868;BME280;66168;45.478;11.060;2022-12-24T04:09:20;100777.83;;;9.50;75.07
76868;BME280;66168;45.478;11.060;2022-12-24T04:11:47;100786.41;;;9.50;75.01
76868;BME280;66168;45.478;11.060;2022-12-24T04:14:14;100796.05;;;9.52;75.08
76868;BME280;66168;45.478;11.060;2022-12-24T04:16:40;100790.60;;;9.51;75.19
76868;BME280;66168;45.478;11.060;2022-12-24T04:19:07;100783.17;;;9.46;75.09
76868;BME280;66168;45.478;11.060;2022-12-24T04:21:34;100772.08;;;9.39;75.15
76868;BME280;66168;45.478;11.060;2022-12-24T04:24:01;100769.29;;;9.36;75.24
76868;BME280;66168;45.478;11.060;2022-12-24T04:26:28;100763.35;;;9.35;75.37
76868;BME280;66168;45.478;11.060;2022-12-24T04:28:54;100773.95;;;9.28;75.26
76868;BME280;66168;45.478;11.060;2022-12-24T04:31:21;100779.59;;;9.25;75.36
76868;BME280;66168;45.478;11.060;2022-12-24T04:33:49;100789.80;;;9.28;75.47
76868;BME280;66168;45.478;11.060;2022-12-24T04:36:18;100800.10;;;9.30;75.65
76868;BME280;66168;45.478;11.060;2022-12-24T04:38:47;100803.52;;;9.33;75.70
76868;BME280;66168;45.478;11.060;2022-12-24T04:41:23;100809.77;;;9.36;75.75
76868;BME280;66168;45.478;11.060;2022-12-24T04:43:52;100803.20;;;9.38;75.52
76868;BME280;66168;45.478;11.060;2022-12-24T04:46:24;100786.61;;;9.33;75.59
76868;BME280;66168;45.478;11.060;2022-12-24T04:48:53;100777.53;;;9.18;75.73
76868;BME280;66168;45.478;11.060;2022-12-24T04:51:20;100774.80;;;9.08;75.86
76868;BME280;66168;45.478;11.060;2022-12-24T04:53:47;100774.77;;;9.03;76.01
76868;BME280;66168;45.478;11.060;2022-12-24T04:56:17;100777.31;;;9.04;76.23
76868;BME280;66168;45.478;11.060;2022-12-24T04:58:45;100776.74;;;9.08;76.38
76868;BME280;66168;45.478;11.060;2022-12-24T05:01:17;100777.55;;;9.12;76.34
76868;BME280;66168;45.478;11.060;2022-12-24T05:03:45;100762.55;;;9.16;76.19
76868;BME280;66168;45.478;11.060;2022-12-24T05:06:15;100762.88;;;9.20;76.32
76868;BME280;66168;45.478;11.060;2022-12-24T05:08:43;100772.48;;;9.21;76.27
76868;BME280;66168;45.478;11.060;2022-12-24T05:11:09;100787.19;;;9.26;76.26
76868;BME280;66168;45.478;11.060;2022-12-24T05:13:43;100790.70;;;9.30;76.40
76868;BME280;66168;45.478;11.060;2022-12-24T05:16:15;100777.83;;;9.34;76.38
76868;BME280;66168;45.478;11.060;2022-12-24T05:18:42;100772.31;;;9.37;76.45
76868;BME280;66168;45.478;11.060;2022-12-24T05:21:11;100776.46;;;9.39;76.31
76868;BME280;66168;45.478;11.060;2022-12-24T05:23:39;100791.09;;;9.37;76.22
76868;BME280;66168;45.478;11.060;2022-12-24T05:26:38;100795.10;;;9.37;76.39
76868;BME280;66168;45.478;11.060;2022-12-24T05:29:06;100787.60;;;9.38;76.52
76868;BME280;66168;45.478;11.060;2022-12-24T05:31:34;100789.73;;;9.40;76.52
76868;BME280;66168;45.478;11.060;2022-12-24T05:34:02;100783.66;;;9.40;76.63
76868;BME280;66168;45.478;11.060;2022-12-24T05:36:29;100774.30;;;9.40;76.69
76868;BME280;66168;45.478;11.060;2022-12-24T05:38:56;100773.54;;;9.40;76.58
76868;BME280;66168;45.478;11.060;2022-12-24T05:41:23;100769.34;;;9.40;76.47
76868;BME280;66168;45.478;11.060;2022-12-24T05:43:51;100771.02;;;9.37;76.42
76868;BME280;66168;45.478;11.060;2022-12-24T05:46:19;100766.86;;;9.30;76.20
76868;BME280;66168;45.478;11.060;2022-12-24T05:48:48;100751.91;;;9.26;75.93
76868;BME280;66168;45.478;11.060;2022-12-24T05:51:16;100742.71;;;9.21;75.90
76868;BME280;66168;45.478;11.060;2022-12-24T05:53:45;100746.48;;;9.18;75.77
76868;BME280;66168;45.478;11.060;2022-12-24T05:56:15;100744.98;;;9.17;75.88
76868;BME280;66168;45.478;11.060;2022-12-24T05:58:42;100745.55;;;9.15;76.11
76868;BME280;66168;45.478;11.060;2022-12-24T06:01:10;100758.05;;;9.14;76.26
76868;BME280;66168;45.478;11.060;2022-12-24T06:03:37;100770.15;;;9.13;76.35
76868;BME280;66168;45.478;11.060;2022-12-24T06:06:05;100774.38;;;9.12;76.30
76868;BME280;66168;45.478;11.060;2022-12-24T06:08:34;100760.67;;;9.11;76.32
76868;BME280;66168;45.478;11.060;2022-12-24T06:11:04;100756.22;;;9.09;76.30
76868;BME280;66168;45.478;11.060;2022-12-24T06:13:32;100760.70;;;9.07;76.07
76868;BME280;66168;45.478;11.060;2022-12-24T06:16:01;100779.86;;;9.03;75.96
76868;BME280;66168;45.478;11.060;2022-12-24T06:18:29;100794.36;;;9.00;76.02
76868;BME280;66168;45.478;11.060;2022-12-24T06:20:57;100793.14;;;8.98;76.21
76868;BME280;66168;45.478;11.060;2022-12-24T06:23:25;100787.98;;;8.96;76.25
76868;BME280;66168;45.478;11.060;2022-12-24T06:25:56;100799.55;;;8.94;76.43
76868;BME280;66168;45.478;11.060;2022-12-24T06:28:24;100819.73;;;8.92;76.49
76868;BME280;66168;45.478;11.060;2022-12-24T06:30:50;100821.23;;;8.85;76.39
76868;BME280;66168;45.478;11.060;2022-12-24T06:33:24;100815.70;;;8.79;76.43
76868;BME280;66168;45.478;11.060;2022-12-24T06:35:51;100812.33;;;8.75;76.51
76868;BME280;66168;45.478;11.060;2022-12-24T06:38:17;100811.04;;;8.76;76.44
76868;BME280;66168;45.478;11.060;2022-12-24T06:40:45;100806.95;;;8.78;76.44
76868;BME280;66168;45.478;11.060;2022-12-24T06:43:13;100801.59;;;8.80;76.58
76868;BME280;66168;45.478;11.060;2022-12-24T06:45:44;100806.66;;;8.81;76.71
76868;BME280;66168;45.478;11.060;2022-12-24T06:48:11;100805.02;;;8.81;76.71
76868;BME280;66168;45.478;11.060;2022-12-24T06:50:39;100797.67;;;8.82;76.61
76868;BME280;66168;45.478;11.060;2022-12-24T06:53:06;100799.76;;;8.84;76.61
76868;BME280;66168;45.478;11.060;2022-12-24T06:55:33;100809.73;;;8.82;76.53
76868;BME280;66168;45.478;11.060;2022-12-24T06:58:00;100812.60;;;8.80;76.56
76868;BME280;66168;45.478;11.060;2022-12-24T07:00:27;100795.61;;;8.82;76.56
76868;BME280;66168;45.478;11.060;2022-12-24T07:02:54;100805.35;;;8.83;76.59
76868;BME280;66168;45.478;11.060;2022-12-24T07:05:21;100805.85;;;8.82;76.78
76868;BME280;66168;45.478;11.060;2022-12-24T07:07:48;100811.96;;;8.83;76.82
76868;BME280;66168;45.478;11.060;2022-12-24T07:10:16;100821.56;;;8.84;76.97
76868;BME280;66168;45.478;11.060;2022-12-24T07:12:43;100825.44;;;8.84;76.78
76868;BME280;66168;45.478;11.060;2022-12-24T07:15:12;100829.39;;;8.85;76.70
76868;BME280;66168;45.478;11.060;2022-12-24T07:17:39;100825.82;;;8.85;76.64
76868;BME280;66168;45.478;11.060;2022-12-24T07:20:09;100818.52;;;8.86;76.62
76868;BME280;66168;45.478;11.060;2022-12-24T07:22:37;100801.04;;;8.90;76.31
76868;BME280;66168;45.478;11.060;2022-12-24T07:25:04;100795.04;;;8.92;76.47
76868;BME280;66168;45.478;11.060;2022-12-24T07:27:31;100793.09;;;8.92;76.52
76868;BME280;66168;45.478;11.060;2022-12-24T07:29:58;100789.14;;;8.92;76.67
76868;BME280;66168;45.478;11.060;2022-12-24T07:32:25;100799.42;;;8.94;76.72
76868;BME280;66168;45.478;11.060;2022-12-24T07:34:52;100819.42;;;8.95;76.57
76868;BME280;66168;45.478;11.060;2022-12-24T07:37:18;100821.85;;;8.97;76.51
76868;BME280;66168;45.478;11.060;2022-12-24T07:39:45;100824.46;;;8.98;76.40
76868;BME280;66168;45.478;11.060;2022-12-24T07:42:12;100823.44;;;8.97;76.36
76868;BME280;66168;45.478;11.060;2022-12-24T07:44:39;100824.71;;;9.00;76.37
76868;BME280;66168;45.478;11.060;2022-12-24T07:47:05;100817.99;;;9.04;76.46
76868;BME280;66168;45.478;11.060;2022-12-24T07:49:33;100819.29;;;9.07;76.34
76868;BME280;66168;45.478;11.060;2022-12-24T07:52:01;100827.95;;;9.10;76.22
76868;BME280;66168;45.478;11.060;2022-12-24T07:54:28;100828.63;;;9.14;76.21
76868;BME280;66168;45.478;11.060;2022-12-24T07:56:55;100835.73;;;9.15;76.05
76868;BME280;66168;45.478;11.060;2022-12-24T07:59:22;100845.22;;;9.17;75.88
76868;BME280;66168;45.478;11.060;2022-12-24T08:01:48;100847.91;;;9.16;75.70
76868;BME280;66168;45.478;11.060;2022-12-24T08:04:16;100852.96;;;9.11;75.80
76868;BME280;66168;45.478;11.060;2022-12-24T08:06:42;100854.90;;;9.10;75.85
76868;BME280;66168;45.478;11.060;2022-12-24T08:09:09;100843.55;;;9.12;75.82
76868;BME280;66168;45.478;11.060;2022-12-24T08:11:36;100851.35;;;9.15;76.03
76868;BME280;66168;45.478;11.060;2022-12-24T08:14:03;100853.48;;;9.18;76.12
76868;BME280;66168;45.478;11.060;2022-12-24T08:16:29;100865.33;;;9.18;76.14
76868;BME280;66168;45.478;11.060;2022-12-24T08:18:56;100871.52;;;9.19;76.03
76868;BME280;66168;45.478;11.060;2022-12-24T08:21:25;100877.66;;;9.22;76.11
76868;BME280;66168;45.478;11.060;2022-12-24T08:23:56;100881.33;;;9.24;75.88
76868;BME280;66168;45.478;11.060;2022-12-24T08:26:23;100892.58;;;9.26;75.92
76868;BME280;66168;45.478;11.060;2022-12-24T08:28:49;100885.85;;;9.29;75.95
76868;BME280;66168;45.478;11.060;2022-12-24T08:31:16;100897.66;;;9.34;76.07
76868;BME280;66168;45.478;11.060;2022-12-24T08:33:43;100903.42;;;9.38;76.16
76868;BME280;66168;45.478;11.060;2022-12-24T08:36:10;100922.67;;;9.44;76.32
76868;BME280;66168;45.478;11.060;2022-12-24T08:38:37;100944.36;;;9.48;76.26
76868;BME280;66168;45.478;11.060;2022-12-24T08:41:03;100949.95;;;9.54;76.18
76868;BME280;66168;45.478;11.060;2022-12-24T08:43:30;100944.04;;;9.58;76.07
76868;BME280;66168;45.478;11.060;2022-12-24T08:46:03;100934.35;;;9.61;75.93
76868;BME280;66168;45.478;11.060;2022-12-24T08:48:32;100920.05;;;9.61;75.83
76868;BME280;66168;45.478;11.060;2022-12-24T08:50:59;100906.95;;;9.54;75.78
76868;BME280;66168;45.478;11.060;2022-12-24T08:53:26;100912.30;;;9.45;75.87
76868;BME280;66168;45.478;11.060;2022-12-24T08:56:00;100926.75;;;9.37;75.91
76868;BME280;66168;45.478;11.060;2022-12-24T08:58:28;100943.88;;;9.38;76.26
76868;BME280;66168;45.478;11.060;2022-12-24T09:00:56;100957.09;;;9.41;76.28
76868;BME280;66168;45.478;11.060;2022-12-24T09:03:22;100967.14;;;9.47;76.46
76868;BME280;66168;45.478;11.060;2022-12-24T09:05:53;100964.72;;;9.53;76.29
76868;BME280;66168;45.478;11.060;2022-12-24T09:08:20;100957.90;;;9.59;76.20
76868;BME280;66168;45.478;11.060;2022-12-24T09:10:47;100951.61;;;9.59;76.07
76868;BME280;66168;45.478;11.060;2022-12-24T09:13:14;100957.91;;;9.56;75.99
76868;BME280;66168;45.478;11.060;2022-12-24T09:15:41;100963.25;;;9.59;76.01
76868;BME280;66168;45.478;11.060;2022-12-24T09:18:07;100971.92;;;9.62;76.12
76868;BME280;66168;45.478;11.060;2022-12-24T09:20:34;100982.79;;;9.67;76.23
76868;BME280;66168;45.478;11.060;2022-12-24T09:23:01;100984.48;;;9.70;76.14
76868;BME280;66168;45.478;11.060;2022-12-24T09:25:27;100975.38;;;9.73;76.12
76868;BME280;66168;45.478;11.060;2022-12-24T09:27:54;100961.77;;;9.76;76.03
76868;BME280;66168;45.478;11.060;2022-12-24T09:30:21;100952.58;;;9.79;75.82
76868;BME280;66168;45.478;11.060;2022-12-24T09:32:50;100953.98;;;9.81;75.84
76868;BME280;66168;45.478;11.060;2022-12-24T09:35:17;100967.69;;;9.78;75.61
76868;BME280;66168;45.478;11.060;2022-12-24T09:37:44;100978.70;;;9.80;75.58
76868;BME280;66168;45.478;11.060;2022-12-24T09:40:24;100981.44;;;9.79;75.66
76868;BME280;66168;45.478;11.060;2022-12-24T09:42:52;100984.34;;;9.80;75.90
76868;BME280;66168;45.478;11.060;2022-12-24T09:45:32;100994.52;;;9.82;75.84
76868;BME280;66168;45.478;11.060;2022-12-24T09:48:10;101006.54;;;9.86;75.74
76868;BME280;66168;45.478;11.060;2022-12-24T09:50:53;100997.23;;;9.90;75.75
76868;BME280;66168;45.478;11.060;2022-12-24T09:56:00;100993.38;;;9.90;75.22
76868;BME280;66168;45.478;11.060;2022-12-24T09:58:33;100980.17;;;9.83;75.19
76868;BME280;66168;45.478;11.060;2022-12-24T10:01:01;100961.10;;;9.80;75.57
76868;BME280;66168;45.478;11.060;2022-12-24T10:03:28;100933.86;;;9.83;75.68
76868;BME280;66168;45.478;11.060;2022-12-24T10:06:03;100932.80;;;9.88;75.72
76868;BME280;66168;45.478;11.060;2022-12-24T10:11:35;100937.13;;;9.99;75.61
76868;BME280;66168;45.478;11.060;2022-12-24T10:14:29;100919.84;;;10.03;75.40
76868;BME280;66168;45.478;11.060;2022-12-24T10:20:21;100925.30;;;10.14;75.09
76868;BME280;66168;45.478;11.060;2022-12-24T10:25:33;100912.06;;;10.25;75.48
76868;BME280;66168;45.478;11.060;2022-12-24T10:28:11;100931.10;;;10.30;75.45
76868;BME280;66168;45.478;11.060;2022-12-24T10:30:40;100952.76;;;10.34;75.38
76868;BME280;66168;45.478;11.060;2022-12-24T10:33:17;100957.27;;;10.40;75.39
76868;BME280;66168;45.478;11.060;2022-12-24T10:35:50;100958.70;;;10.46;75.28
76868;BME280;66168;45.478;11.060;2022-12-24T10:38:19;100965.98;;;10.50;75.24
76868;BME280;66168;45.478;11.060;2022-12-24T10:40:47;100979.80;;;10.50;75.12
76868;BME280;66168;45.478;11.060;2022-12-24T10:43:19;100988.92;;;10.52;75.08
76868;BME280;66168;45.478;11.060;2022-12-24T10:45:53;100989.62;;;10.55;75.30
76868;BME280;66168;45.478;11.060;2022-12-24T10:48:41;100988.58;;;10.58;75.43
76868;BME280;66168;45.478;11.060;2022-12-24T10:53:51;100977.02;;;10.67;75.20
76868;BME280;66168;45.478;11.060;2022-12-24T10:56:19;100981.79;;;10.67;75.04
76868;BME280;66168;45.478;11.060;2022-12-24T10:58:52;100983.65;;;10.68;75.06
76868;BME280;66168;45.478;11.060;2022-12-24T11:01:20;100979.87;;;10.69;74.91
76868;BME280;66168;45.478;11.060;2022-12-24T11:04:14;100971.69;;;10.72;74.89
76868;BME280;66168;45.478;11.060;2022-12-24T11:06:52;100978.28;;;10.76;75.10
76868;BME280;66168;45.478;11.060;2022-12-24T11:11:58;100981.25;;;10.91;75.07
76868;BME280;66168;45.478;11.060;2022-12-24T11:14:36;100974.12;;;10.99;74.82
76868;BME280;66168;45.478;11.060;2022-12-24T11:17:04;100968.28;;;11.05;74.58
76868;BME280;66168;45.478;11.060;2022-12-24T11:19:34;100969.32;;;11.10;74.40
76868;BME280;66168;45.478;11.060;2022-12-24T11:22:05;100977.70;;;11.10;73.80
76868;BME280;66168;45.478;11.060;2022-12-24T11:24:37;100986.13;;;11.07;73.86
76868;BME280;66168;45.478;11.060;2022-12-24T11:27:45;100988.55;;;11.04;74.11
76868;BME280;66168;45.478;11.060;2022-12-24T11:32:44;100989.88;;;11.01;74.18
76868;BME280;66168;45.478;11.060;2022-12-24T11:37:42;100988.33;;;11.04;74.01
76868;BME280;66168;45.478;11.060;2022-12-24T11:40:21;100991.33;;;11.04;73.83
76868;BME280;66168;45.478;11.060;2022-12-24T11:42:49;100978.79;;;11.02;73.73
76868;BME280;66168;45.478;11.060;2022-12-24T11:45:24;100973.29;;;11.05;73.60
76868;BME280;66168;45.478;11.060;2022-12-24T11:47:53;100970.33;;;11.09;73.69
76868;BME280;66168;45.478;11.060;2022-12-24T11:50:34;100974.42;;;11.08;73.49
76868;BME280;66168;45.478;11.060;2022-12-24T12:01:21;100957.73;;;10.97;73.10
76868;BME280;66168;45.478;11.060;2022-12-24T12:03:53;100961.70;;;11.04;73.11
76868;BME280;66168;45.478;11.060;2022-12-24T12:06:42;100960.37;;;11.13;73.17
76868;BME280;66168;45.478;11.060;2022-12-24T12:09:13;100952.15;;;11.17;72.50
76868;BME280;66168;45.478;11.060;2022-12-24T12:11:45;100954.73;;;11.11;72.14
76868;BME280;66168;45.478;11.060;2022-12-24T12:14:20;100944.71;;;11.00;71.99
76868;BME280;66168;45.478;11.060;2022-12-24T12:17:02;100946.55;;;10.95;72.16
76868;BME280;66168;45.478;11.060;2022-12-24T12:20:23;100957.95;;;10.95;72.30
76868;BME280;66168;45.478;11.060;2022-12-24T12:22:32;100956.48;;;10.98;72.50
76868;BME280;66168;45.478;11.060;2022-12-24T12:25:02;100968.13;;;11.02;72.20
76868;BME280;66168;45.478;11.060;2022-12-24T12:27:41;100964.98;;;11.06;72.16
76868;BME280;66168;45.478;11.060;2022-12-24T12:30:18;100961.27;;;11.11;71.93
76868;BME280;66168;45.478;11.060;2022-12-24T12:33:03;100962.23;;;11.12;71.69
76868;BME280;66168;45.478;11.060;2022-12-24T12:35:40;100963.79;;;11.16;71.75
76868;BME280;66168;45.478;11.060;2022-12-24T12:38:17;100977.06;;;11.19;71.62
76868;BME280;66168;45.478;11.060;2022-12-24T12:43:55;100988.70;;;11.31;71.37
76868;BME280;66168;45.478;11.060;2022-12-24T12:57:14;100988.70;;;11.15;71.45
76868;BME280;66168;45.478;11.060;2022-12-24T12:59:48;101004.64;;;11.08;71.58
76868;BME280;66168;45.478;11.060;2022-12-24T13:11:02;101038.95;;;10.94;72.64
76868;BME280;66168;45.478;11.060;2022-12-24T13:21:53;101017.19;;;10.76;73.05
76868;BME280;66168;45.478;11.060;2022-12-24T13:24:23;101010.38;;;10.73;73.06
76868;BME280;66168;45.478;11.060;2022-12-24T13:27:04;101003.50;;;10.75;73.11
76868;BME280;66168;45.478;11.060;2022-12-24T13:35:02;101002.96;;;10.73;73.46
76868;BME280;66168;45.478;11.060;2022-12-24T13:43:05;101009.81;;;10.69;73.47
76868;BME280;66168;45.478;11.060;2022-12-24T13:56:08;101012.08;;;10.79;73.64
76868;BME280;66168;45.478;11.060;2022-12-24T13:58:41;101021.52;;;10.77;73.59
76868;BME280;66168;45.478;11.060;2022-12-24T14:01:14;101029.66;;;10.74;73.64
76868;BME280;66168;45.478;11.060;2022-12-24T14:03:46;101036.52;;;10.71;73.63
76868;BME280;66168;45.478;11.060;2022-12-24T14:06:36;101035.48;;;10.68;73.34
76868;BME280;66168;45.478;11.060;2022-12-24T14:09:08;101032.92;;;10.65;73.44
76868;BME280;66168;45.478;11.060;2022-12-24T14:16:57;101023.91;;;10.65;73.58
76868;BME280;66168;45.478;11.060;2022-12-24T14:19:28;101020.56;;;10.61;73.51
76868;BME280;66168;45.478;11.060;2022-12-24T14:24:42;101027.08;;;10.62;73.47
76868;BME280;66168;45.478;11.060;2022-12-24T14:27:37;101034.92;;;10.63;73.49
76868;BME280;66168;45.478;11.060;2022-12-24T14:30:17;101042.09;;;10.67;73.55
76868;BME280;66168;45.478;11.060;2022-12-24T14:32:45;101052.84;;;10.74;73.43
76868;BME280;66168;45.478;11.060;2022-12-24T14:37:41;101065.83;;;10.77;73.42
76868;BME280;66168;45.478;11.060;2022-12-24T14:40:16;101063.08;;;10.78;73.55
76868;BME280;66168;45.478;11.060;2022-12-24T14:43:13;101067.56;;;10.79;73.49
76868;BME280;66168;45.478;11.060;2022-12-24T14:45:49;101084.15;;;10.83;73.47
76868;BME280;66168;45.478;11.060;2022-12-24T14:48:43;101083.98;;;10.86;73.33
76868;BME280;66168;45.478;11.060;2022-12-24T14:56:32;101089.41;;;10.95;73.32
76868;BME280;66168;45.478;11.060;2022-12-24T14:58:59;101090.54;;;10.99;73.44
76868;BME280;66168;45.478;11.060;2022-12-24T15:01:31;101091.25;;;11.01;73.44
76868;BME280;66168;45.478;11.060;2022-12-24T15:04:15;101086.11;;;11.03;73.26
76868;BME280;66168;45.478;11.060;2022-12-24T15:06:48;101079.64;;;11.06;73.04
76868;BME280;66168;45.478;11.060;2022-12-24T15:09:20;101081.73;;;11.06;72.87
76868;BME280;66168;45.478;11.060;2022-12-24T15:11:50;101081.12;;;11.05;72.85